sensor_id;sensor_type;location;lat;lon;timestamp;P1;durP1;ratioP1;P2;durP2;ratioP2
43124;SDS011;49182;50.788;7.318;2022-10-22T00:02:20;14.23;;;3.03;;
43124;SDS011;49182;50.788;7.318;2022-10-22T00:04:47;12.43;;;2.72;;
43124;SDS011;49182;50.788;7.318;2022-10-22T00:07:15;6.35;;;2.30;;
43124;SDS011;49182;50.788;7.318;2022-10-22T00:09:42;12.10;;;2.55;;
43124;SDS011;49182;50.788;7.318;2022-10-22T00:12:09;6.32;;;2.58;;
43124;SDS011;49182;50.788;7.318;2022-10-22T00:14:37;8.20;;;2.92;;
43124;SDS011;49182;50.788;7.318;2022-10-22T00:17:04;13.35;;;2.80;;
43124;SDS011;49182;50.788;7.318;2022-10-22T00:19:36;8.95;;;2.85;;
43124;SDS011;49182;50.788;7.318;2022-10-22T00:22:03;7.43;;;3.10;;
43124;SDS011;49182;50.788;7.318;2022-10-22T00:24:30;9.40;;;2.53;;
43124;SDS011;49182;50.788;7.318;2022-10-22T00:26:57;5.82;;;2.83;;
43124;SDS011;49182;50.788;7.318;2022-10-22T00:29:23;12.00;;;3.03;;
43124;SDS011;49182;50.788;7.318;2022-10-22T00:31:51;8.88;;;2.53;;
43124;SDS011;49182;50.788;7.318;2022-10-22T00:34:19;7.88;;;2.53;;
43124;SDS011;49182;50.788;7.318;2022-10-22T00:36:46;6.60;;;2.95;;
43124;SDS011;49182;50.788;7.318;2022-10-22T00:39:14;7.32;;;2.80;;
43124;SDS011;49182;50.788;7.318;2022-10-22T00:41:42;10.07;;;2.88;;
43124;SDS011;49182;50.788;7.318;2022-10-22T00:47:10;15.52;;;2.55;;
43124;SDS011;49182;50.788;7.318;2022-10-22T00:49:36;10.93;;;4.43;;
43124;SDS011;49182;50.788;7.318;2022-10-22T00:52:03;9.98;;;2.90;;
43124;SDS011;49182;50.788;7.318;2022-10-22T00:54:30;8.32;;;2.85;;
43124;SDS011;49182;50.788;7.318;2022-10-22T00:56:58;6.72;;;2.70;;
43124;SDS011;49182;50.788;7.318;2022-10-22T00:59:25;9.18;;;3.03;;
43124;SDS011;49182;50.788;7.318;2022-10-22T01:01:51;16.63;;;4.07;;
43124;SDS011;49182;50.788;7.318;2022-10-22T01:04:20;11.32;;;3.28;;
43124;SDS011;49182;50.788;7.318;2022-10-22T01:06:46;9.27;;;3.03;;
43124;SDS011;49182;50.788;7.318;2022-10-22T01:09:14;14.13;;;2.85;;
43124;SDS011;49182;50.788;7.318;2022-10-22T01:11:50;7.22;;;3.38;;
43124;SDS011;49182;50.788;7.318;2022-10-22T01:14:24;8.55;;;3.05;;
43124;SDS011;49182;50.788;7.318;2022-10-22T01:17:00;11.50;;;3.20;;
43124;SDS011;49182;50.788;7.318;2022-10-22T01:19:41;8.13;;;3.35;;
43124;SDS011;49182;50.788;7.318;2022-10-22T01:22:17;9.90;;;3.22;;
43124;SDS011;49182;50.788;7.318;2022-10-22T01:24:50;12.00;;;3.38;;
43124;SDS011;49182;50.788;7.318;2022-10-22T01:27:26;10.20;;;3.72;;
43124;SDS011;49182;50.788;7.318;2022-10-22T01:30:02;11.15;;;3.03;;
43124;SDS011;49182;50.788;7.318;2022-10-22T01:35:02;9.30;;;3.83;;
43124;SDS011;49182;50.788;7.318;2022-10-22T01:37:33;9.75;;;3.38;;
43124;SDS011;49182;50.788;7.318;2022-10-22T01:42:33;10.25;;;3.55;;
43124;SDS011;49182;50.788;7.318;2022-10-22T01:44:59;12.52;;;3.25;;
43124;SDS011;49182;50.788;7.318;2022-10-22T01:47:30;7.53;;;2.83;;
43124;SDS011;49182;50.788;7.318;2022-10-22T01:53:10;12.52;;;3.92;;
43124;SDS011;49182;50.788;7.318;2022-10-22T01:55:47;14.25;;;3.90;;
43124;SDS011;49182;50.788;7.318;2022-10-22T01:58:23;11.85;;;4.05;;
43124;SDS011;49182;50.788;7.318;2022-10-22T02:01:01;9.75;;;3.60;;
43124;SDS011;49182;50.788;7.318;2022-10-22T02:03:34;9.05;;;3.08;;
43124;SDS011;49182;50.788;7.318;2022-10-22T02:06:07;6.38;;;3.30;;
43124;SDS011;49182;50.788;7.318;2022-10-22T02:08:37;7.97;;;3.13;;
43124;SDS011;49182;50.788;7.318;2022-10-22T02:11:05;12.90;;;3.20;;
43124;SDS011;49182;50.788;7.318;2022-10-22T02:13:34;11.80;;;3.20;;
43124;SDS011;49182;50.788;7.318;2022-10-22T02:16:06;14.60;;;3.17;;
43124;SDS011;49182;50.788;7.318;2022-10-22T02:18:36;11.20;;;3.67;;
43124;SDS011;49182;50.788;7.318;2022-10-22T02:21:08;7.72;;;3.10;;
43124;SDS011;49182;50.788;7.318;2022-10-22T02:23:35;9.75;;;3.60;;
43124;SDS011;49182;50.788;7.318;2022-10-22T02:26:02;15.73;;;4.43;;
43124;SDS011;49182;50.788;7.318;2022-10-22T02:28:36;14.70;;;3.40;;
43124;SDS011;49182;50.788;7.318;2022-10-22T02:31:10;7.15;;;2.72;;
43124;SDS011;49182;50.788;7.318;2022-10-22T02:33:42;18.90;;;3.50;;
43124;SDS011;49182;50.788;7.318;2022-10-22T02:36:11;9.48;;;3.28;;
43124;SDS011;49182;50.788;7.318;2022-10-22T02:38:39;11.27;;;3.38;;
43124;SDS011;49182;50.788;7.318;2022-10-22T02:41:07;10.45;;;3.70;;
43124;SDS011;49182;50.788;7.318;2022-10-22T02:43:37;8.57;;;3.47;;
43124;SDS011;49182;50.788;7.318;2022-10-22T02:46:06;7.18;;;3.10;;
43124;SDS011;49182;50.788;7.318;2022-10-22T02:48:33;9.82;;;3.63;;
43124;SDS011;49182;50.788;7.318;2022-10-22T02:51:01;12.57;;;2.83;;
43124;SDS011;49182;50.788;7.318;2022-10-22T02:53:27;13.93;;;3.15;;
43124;SDS011;49182;50.788;7.318;2022-10-22T02:55:54;10.95;;;2.90;;
43124;SDS011;49182;50.788;7.318;2022-10-22T02:58:20;11.77;;;3.65;;
43124;SDS011;49182;50.788;7.318;2022-10-22T03:00:47;11.90;;;2.90;;
43124;SDS011;49182;50.788;7.318;2022-10-22T03:03:14;8.93;;;3.00;;
43124;SDS011;49182;50.788;7.318;2022-10-22T03:05:41;9.40;;;2.75;;
43124;SDS011;49182;50.788;7.318;2022-10-22T03:08:09;5.85;;;2.92;;
43124;SDS011;49182;50.788;7.318;2022-10-22T03:10:35;9.82;;;3.22;;
43124;SDS011;49182;50.788;7.318;2022-10-22T03:13:02;12.35;;;3.00;;
43124;SDS011;49182;50.788;7.318;2022-10-22T03:15:29;14.90;;;3.58;;
43124;SDS011;49182;50.788;7.318;2022-10-22T03:17:55;13.27;;;3.00;;
43124;SDS011;49182;50.788;7.318;2022-10-22T03:20:22;18.13;;;3.33;;
43124;SDS011;49182;50.788;7.318;2022-10-22T03:22:49;9.18;;;3.10;;
43124;SDS011;49182;50.788;7.318;2022-10-22T03:25:18;8.02;;;3.00;;
43124;SDS011;49182;50.788;7.318;2022-10-22T03:27:47;12.55;;;3.30;;
43124;SDS011;49182;50.788;7.318;2022-10-22T03:30:16;8.57;;;3.25;;
43124;SDS011;49182;50.788;7.318;2022-10-22T03:32:43;10.38;;;3.03;;
43124;SDS011;49182;50.788;7.318;2022-10-22T03:35:09;8.27;;;3.25;;
43124;SDS011;49182;50.788;7.318;2022-10-22T03:37:36;15.77;;;3.22;;
43124;SDS011;49182;50.788;7.318;2022-10-22T03:40:04;8.13;;;2.85;;
43124;SDS011;49182;50.788;7.318;2022-10-22T03:42:34;20.23;;;2.70;;
43124;SDS011;49182;50.788;7.318;2022-10-22T03:45:00;11.77;;;2.90;;
43124;SDS011;49182;50.788;7.318;2022-10-22T03:47:27;10.75;;;2.60;;
43124;SDS011;49182;50.788;7.318;2022-10-22T03:49:54;10.95;;;2.45;;
43124;SDS011;49182;50.788;7.318;2022-10-22T03:52:20;9.85;;;4.00;;
43124;SDS011;49182;50.788;7.318;2022-10-22T03:54:47;8.68;;;2.50;;
43124;SDS011;49182;50.788;7.318;2022-10-22T03:57:14;8.10;;;2.40;;
43124;SDS011;49182;50.788;7.318;2022-10-22T03:59:43;8.80;;;2.83;;
43124;SDS011;49182;50.788;7.318;2022-10-22T04:02:10;10.38;;;2.85;;
43124;SDS011;49182;50.788;7.318;2022-10-22T04:04:38;9.00;;;2.67;;
43124;SDS011;49182;50.788;7.318;2022-10-22T04:07:05;4.97;;;2.35;;
43124;SDS011;49182;50.788;7.318;2022-10-22T04:09:32;9.13;;;2.20;;
43124;SDS011;49182;50.788;7.318;2022-10-22T04:12:00;16.30;;;2.90;;
43124;SDS011;49182;50.788;7.318;2022-10-22T04:14:27;8.70;;;2.20;;
43124;SDS011;49182;50.788;7.318;2022-10-22T04:16:55;12.45;;;2.90;;
43124;SDS011;49182;50.788;7.318;2022-10-22T04:19:21;9.52;;;2.65;;
43124;SDS011;49182;50.788;7.318;2022-10-22T04:21:48;7.70;;;2.55;;
43124;SDS011;49182;50.788;7.318;2022-10-22T04:24:14;9.27;;;2.75;;
43124;SDS011;49182;50.788;7.318;2022-10-22T04:26:41;9.27;;;2.72;;
43124;SDS011;49182;50.788;7.318;2022-10-22T04:29:08;9.63;;;2.88;;
43124;SDS011;49182;50.788;7.318;2022-10-22T04:31:41;7.93;;;2.45;;
43124;SDS011;49182;50.788;7.318;2022-10-22T04:34:09;11.23;;;2.95;;
43124;SDS011;49182;50.788;7.318;2022-10-22T04:36:35;6.57;;;2.42;;
43124;SDS011;49182;50.788;7.318;2022-10-22T04:39:02;32.13;;;3.40;;
43124;SDS011;49182;50.788;7.318;2022-10-22T04:41:31;9.32;;;2.70;;
43124;SDS011;49182;50.788;7.318;2022-10-22T04:43:59;8.73;;;2.30;;
43124;SDS011;49182;50.788;7.318;2022-10-22T04:46:27;7.05;;;2.15;;
43124;SDS011;49182;50.788;7.318;2022-10-22T04:48:54;5.95;;;2.67;;
43124;SDS011;49182;50.788;7.318;2022-10-22T04:51:23;8.95;;;2.60;;
43124;SDS011;49182;50.788;7.318;2022-10-22T04:53:50;10.68;;;3.17;;
43124;SDS011;49182;50.788;7.318;2022-10-22T04:56:18;6.80;;;2.97;;
43124;SDS011;49182;50.788;7.318;2022-10-22T04:58:45;10.18;;;3.03;;
43124;SDS011;49182;50.788;7.318;2022-10-22T05:01:13;7.90;;;2.13;;
43124;SDS011;49182;50.788;7.318;2022-10-22T05:03:42;24.48;;;2.60;;
43124;SDS011;49182;50.788;7.318;2022-10-22T05:06:09;19.88;;;2.63;;
43124;SDS011;49182;50.788;7.318;2022-10-22T05:08:43;11.00;;;1.80;;
43124;SDS011;49182;50.788;7.318;2022-10-22T05:11:10;7.70;;;1.98;;
43124;SDS011;49182;50.788;7.318;2022-10-22T05:13:37;12.68;;;2.42;;
43124;SDS011;49182;50.788;7.318;2022-10-22T05:16:04;9.35;;;2.67;;
43124;SDS011;49182;50.788;7.318;2022-10-22T05:18:32;6.55;;;2.65;;
43124;SDS011;49182;50.788;7.318;2022-10-22T05:20:59;10.45;;;2.60;;
43124;SDS011;49182;50.788;7.318;2022-10-22T05:23:26;11.82;;;2.20;;
43124;SDS011;49182;50.788;7.318;2022-10-22T05:25:54;9.48;;;2.50;;
43124;SDS011;49182;50.788;7.318;2022-10-22T05:28:21;6.88;;;2.30;;
43124;SDS011;49182;50.788;7.318;2022-10-22T05:30:51;10.57;;;2.20;;
43124;SDS011;49182;50.788;7.318;2022-10-22T05:33:18;17.88;;;2.80;;
43124;SDS011;49182;50.788;7.318;2022-10-22T05:35:49;11.82;;;1.67;;
43124;SDS011;49182;50.788;7.318;2022-10-22T05:38:16;15.23;;;2.92;;
43124;SDS011;49182;50.788;7.318;2022-10-22T05:40:43;7.90;;;1.45;;
43124;SDS011;49182;50.788;7.318;2022-10-22T05:43:12;7.20;;;2.08;;
43124;SDS011;49182;50.788;7.318;2022-10-22T05:45:39;4.82;;;2.00;;
43124;SDS011;49182;50.788;7.318;2022-10-22T05:48:06;11.88;;;2.60;;
43124;SDS011;49182;50.788;7.318;2022-10-22T05:50:34;45.95;;;4.15;;
43124;SDS011;49182;50.788;7.318;2022-10-22T05:53:01;14.50;;;2.38;;
43124;SDS011;49182;50.788;7.318;2022-10-22T05:55:28;9.05;;;2.03;;
43124;SDS011;49182;50.788;7.318;2022-10-22T05:57:55;7.55;;;1.80;;
43124;SDS011;49182;50.788;7.318;2022-10-22T06:00:23;8.38;;;2.78;;
43124;SDS011;49182;50.788;7.318;2022-10-22T06:02:49;8.25;;;2.28;;
43124;SDS011;49182;50.788;7.318;2022-10-22T06:05:16;6.40;;;2.25;;
43124;SDS011;49182;50.788;7.318;2022-10-22T06:07:43;8.32;;;2.58;;
43124;SDS011;49182;50.788;7.318;2022-10-22T06:10:12;9.10;;;4.32;;
43124;SDS011;49182;50.788;7.318;2022-10-22T06:12:42;9.98;;;4.10;;
43124;SDS011;49182;50.788;7.318;2022-10-22T06:15:10;13.70;;;4.63;;
43124;SDS011;49182;50.788;7.318;2022-10-22T06:17:39;10.90;;;3.30;;
43124;SDS011;49182;50.788;7.318;2022-10-22T06:20:06;6.78;;;1.70;;
43124;SDS011;49182;50.788;7.318;2022-10-22T06:22:34;5.13;;;2.20;;
43124;SDS011;49182;50.788;7.318;2022-10-22T06:25:01;9.90;;;2.40;;
43124;SDS011;49182;50.788;7.318;2022-10-22T06:27:27;13.55;;;3.20;;
43124;SDS011;49182;50.788;7.318;2022-10-22T06:29:54;5.95;;;2.25;;
43124;SDS011;49182;50.788;7.318;2022-10-22T06:32:20;12.40;;;3.22;;
43124;SDS011;49182;50.788;7.318;2022-10-22T06:34:48;10.57;;;2.78;;
43124;SDS011;49182;50.788;7.318;2022-10-22T06:37:15;4.53;;;1.70;;
43124;SDS011;49182;50.788;7.318;2022-10-22T06:39:42;7.45;;;2.40;;
43124;SDS011;49182;50.788;7.318;2022-10-22T06:42:09;7.95;;;1.90;;
43124;SDS011;49182;50.788;7.318;2022-10-22T06:44:35;9.07;;;2.53;;
43124;SDS011;49182;50.788;7.318;2022-10-22T06:47:02;8.90;;;2.25;;
43124;SDS011;49182;50.788;7.318;2022-10-22T06:49:28;10.32;;;2.75;;
43124;SDS011;49182;50.788;7.318;2022-10-22T06:51:56;18.38;;;3.28;;
43124;SDS011;49182;50.788;7.318;2022-10-22T06:54:23;10.93;;;2.70;;
43124;SDS011;49182;50.788;7.318;2022-10-22T06:56:50;15.18;;;2.38;;
43124;SDS011;49182;50.788;7.318;2022-10-22T06:59:16;9.20;;;2.30;;
43124;SDS011;49182;50.788;7.318;2022-10-22T07:01:43;6.28;;;2.13;;
43124;SDS011;49182;50.788;7.318;2022-10-22T07:04:09;11.27;;;2.83;;
43124;SDS011;49182;50.788;7.318;2022-10-22T07:06:36;11.30;;;2.40;;
43124;SDS011;49182;50.788;7.318;2022-10-22T07:09:04;7.32;;;2.13;;
43124;SDS011;49182;50.788;7.318;2022-10-22T07:11:35;6.00;;;2.47;;
43124;SDS011;49182;50.788;7.318;2022-10-22T07:14:04;7.03;;;2.55;;
43124;SDS011;49182;50.788;7.318;2022-10-22T07:16:31;6.32;;;2.55;;
43124;SDS011;49182;50.788;7.318;2022-10-22T07:18:58;9.82;;;2.40;;
43124;SDS011;49182;50.788;7.318;2022-10-22T07:21:25;6.60;;;2.10;;
43124;SDS011;49182;50.788;7.318;2022-10-22T07:23:52;7.07;;;2.28;;
43124;SDS011;49182;50.788;7.318;2022-10-22T07:26:20;7.55;;;2.53;;
43124;SDS011;49182;50.788;7.318;2022-10-22T07:28:46;5.18;;;2.20;;
43124;SDS011;49182;50.788;7.318;2022-10-22T07:31:13;5.85;;;2.63;;
43124;SDS011;49182;50.788;7.318;2022-10-22T07:33:41;8.95;;;2.53;;
43124;SDS011;49182;50.788;7.318;2022-10-22T07:36:09;7.63;;;2.30;;
43124;SDS011;49182;50.788;7.318;2022-10-22T07:38:37;9.40;;;2.60;;
43124;SDS011;49182;50.788;7.318;2022-10-22T07:41:03;9.18;;;2.55;;
43124;SDS011;49182;50.788;7.318;2022-10-22T07:43:32;8.75;;;2.63;;
43124;SDS011;49182;50.788;7.318;2022-10-22T07:45:58;5.80;;;2.47;;
43124;SDS011;49182;50.788;7.318;2022-10-22T07:48:25;10.98;;;3.53;;
43124;SDS011;49182;50.788;7.318;2022-10-22T07:50:51;9.82;;;3.33;;
43124;SDS011;49182;50.788;7.318;2022-10-22T07:53:18;9.95;;;3.33;;
43124;SDS011;49182;50.788;7.318;2022-10-22T07:55:46;6.15;;;3.13;;
43124;SDS011;49182;50.788;7.318;2022-10-22T07:58:13;9.15;;;2.90;;
43124;SDS011;49182;50.788;7.318;2022-10-22T08:00:41;10.10;;;4.18;;
43124;SDS011;49182;50.788;7.318;2022-10-22T08:03:08;9.02;;;2.90;;
43124;SDS011;49182;50.788;7.318;2022-10-22T08:05:36;9.63;;;2.95;;
43124;SDS011;49182;50.788;7.318;2022-10-22T08:08:03;10.13;;;4.15;;
43124;SDS011;49182;50.788;7.318;2022-10-22T08:10:29;9.32;;;2.97;;
43124;SDS011;49182;50.788;7.318;2022-10-22T08:12:56;7.65;;;3.50;;
43124;SDS011;49182;50.788;7.318;2022-10-22T08:15:23;11.38;;;3.28;;
43124;SDS011;49182;50.788;7.318;2022-10-22T08:17:51;8.20;;;3.08;;
43124;SDS011;49182;50.788;7.318;2022-10-22T08:20:17;12.00;;;3.47;;
43124;SDS011;49182;50.788;7.318;2022-10-22T08:22:45;9.43;;;3.20;;
43124;SDS011;49182;50.788;7.318;2022-10-22T08:25:11;9.15;;;3.28;;
43124;SDS011;49182;50.788;7.318;2022-10-22T08:27:38;12.57;;;3.60;;
43124;SDS011;49182;50.788;7.318;2022-10-22T08:30:06;19.73;;;3.88;;
43124;SDS011;49182;50.788;7.318;2022-10-22T08:32:33;10.18;;;4.20;;
43124;SDS011;49182;50.788;7.318;2022-10-22T08:35:01;8.90;;;4.32;;
43124;SDS011;49182;50.788;7.318;2022-10-22T08:37:28;13.95;;;3.63;;
43124;SDS011;49182;50.788;7.318;2022-10-22T08:39:54;9.30;;;3.88;;
43124;SDS011;49182;50.788;7.318;2022-10-22T08:42:28;14.90;;;4.10;;
43124;SDS011;49182;50.788;7.318;2022-10-22T08:45:17;15.20;;;4.00;;
43124;SDS011;49182;50.788;7.318;2022-10-22T08:47:56;14.82;;;3.72;;
43124;SDS011;49182;50.788;7.318;2022-10-22T08:50:36;11.38;;;3.65;;
43124;SDS011;49182;50.788;7.318;2022-10-22T08:53:11;16.85;;;4.38;;
43124;SDS011;49182;50.788;7.318;2022-10-22T08:55:39;10.57;;;4.70;;
43124;SDS011;49182;50.788;7.318;2022-10-22T08:58:09;16.65;;;4.53;;
43124;SDS011;49182;50.788;7.318;2022-10-22T09:00:43;12.60;;;2.40;;
43124;SDS011;49182;50.788;7.318;2022-10-22T09:03:18;8.05;;;3.25;;
43124;SDS011;49182;50.788;7.318;2022-10-22T09:05:58;11.48;;;6.05;;
43124;SDS011;49182;50.788;7.318;2022-10-22T09:08:30;10.40;;;3.13;;
43124;SDS011;49182;50.788;7.318;2022-10-22T09:10:57;9.18;;;2.15;;
43124;SDS011;49182;50.788;7.318;2022-10-22T09:13:28;9.35;;;2.42;;
43124;SDS011;49182;50.788;7.318;2022-10-22T09:15:57;7.18;;;2.00;;
43124;SDS011;49182;50.788;7.318;2022-10-22T09:18:45;8.63;;;2.30;;
43124;SDS011;49182;50.788;7.318;2022-10-22T09:21:25;6.47;;;2.20;;
43124;SDS011;49182;50.788;7.318;2022-10-22T09:23:58;7.45;;;2.25;;
43124;SDS011;49182;50.788;7.318;2022-10-22T09:26:31;14.75;;;3.17;;
43124;SDS011;49182;50.788;7.318;2022-10-22T09:29:00;11.90;;;3.72;;
43124;SDS011;49182;50.788;7.318;2022-10-22T09:31:27;10.25;;;2.25;;
43124;SDS011;49182;50.788;7.318;2022-10-22T09:33:56;7.13;;;2.53;;
43124;SDS011;49182;50.788;7.318;2022-10-22T09:36:27;11.27;;;4.53;;
43124;SDS011;49182;50.788;7.318;2022-10-22T09:38:54;9.55;;;3.97;;
43124;SDS011;49182;50.788;7.318;2022-10-22T09:41:23;12.25;;;2.92;;
43124;SDS011;49182;50.788;7.318;2022-10-22T09:43:53;9.23;;;1.98;;
43124;SDS011;49182;50.788;7.318;2022-10-22T09:46:20;13.70;;;1.63;;
43124;SDS011;49182;50.788;7.318;2022-10-22T09:48:49;11.15;;;2.13;;
43124;SDS011;49182;50.788;7.318;2022-10-22T09:51:35;7.47;;;1.55;;
43124;SDS011;49182;50.788;7.318;2022-10-22T09:54:12;12.25;;;1.95;;
43124;SDS011;49182;50.788;7.318;2022-10-22T09:56:41;14.95;;;1.85;;
43124;SDS011;49182;50.788;7.318;2022-10-22T09:59:14;12.60;;;1.63;;
43124;SDS011;49182;50.788;7.318;2022-10-22T10:01:41;11.93;;;1.80;;
43124;SDS011;49182;50.788;7.318;2022-10-22T10:04:09;6.72;;;1.60;;
43124;SDS011;49182;50.788;7.318;2022-10-22T10:06:40;10.95;;;1.80;;
43124;SDS011;49182;50.788;7.318;2022-10-22T10:09:11;5.90;;;1.97;;
43124;SDS011;49182;50.788;7.318;2022-10-22T10:11:42;8.43;;;1.60;;
43124;SDS011;49182;50.788;7.318;2022-10-22T10:14:12;6.45;;;1.80;;
43124;SDS011;49182;50.788;7.318;2022-10-22T10:16:48;5.60;;;1.73;;
43124;SDS011;49182;50.788;7.318;2022-10-22T10:19:37;7.70;;;1.40;;
43124;SDS011;49182;50.788;7.318;2022-10-22T10:22:20;14.77;;;1.80;;
43124;SDS011;49182;50.788;7.318;2022-10-22T10:25:01;10.60;;;1.50;;
43124;SDS011;49182;50.788;7.318;2022-10-22T10:27:40;11.10;;;1.35;;
43124;SDS011;49182;50.788;7.318;2022-10-22T10:30:10;7.18;;;1.27;;
43124;SDS011;49182;50.788;7.318;2022-10-22T10:32:48;7.15;;;1.42;;
43124;SDS011;49182;50.788;7.318;2022-10-22T10:35:21;7.38;;;2.72;;
43124;SDS011;49182;50.788;7.318;2022-10-22T10:40:27;5.68;;;2.13;;
43124;SDS011;49182;50.788;7.318;2022-10-22T10:43:01;4.55;;;1.55;;
43124;SDS011;49182;50.788;7.318;2022-10-22T10:45:36;3.17;;;1.00;;
43124;SDS011;49182;50.788;7.318;2022-10-22T10:48:14;5.30;;;1.08;;
43124;SDS011;49182;50.788;7.318;2022-10-22T10:50:55;5.80;;;0.95;;
43124;SDS011;49182;50.788;7.318;2022-10-22T10:53:33;3.35;;;0.90;;
43124;SDS011;49182;50.788;7.318;2022-10-22T10:56:13;4.57;;;1.00;;
43124;SDS011;49182;50.788;7.318;2022-10-22T10:58:50;7.60;;;1.30;;
43124;SDS011;49182;50.788;7.318;2022-10-22T11:01:26;10.20;;;1.38;;
43124;SDS011;49182;50.788;7.318;2022-10-22T11:09:38;7.05;;;1.15;;
43124;SDS011;49182;50.788;7.318;2022-10-22T11:12:11;5.72;;;0.80;;
43124;SDS011;49182;50.788;7.318;2022-10-22T11:14:45;5.47;;;0.95;;
43124;SDS011;49182;50.788;7.318;2022-10-22T11:17:22;5.30;;;0.90;;
43124;SDS011;49182;50.788;7.318;2022-10-22T11:19:54;3.58;;;0.80;;
43124;SDS011;49182;50.788;7.318;2022-10-22T11:22:27;5.03;;;1.05;;
43124;SDS011;49182;50.788;7.318;2022-10-22T11:25:02;6.55;;;1.40;;
43124;SDS011;49182;50.788;7.318;2022-10-22T11:27:39;3.55;;;0.80;;
43124;SDS011;49182;50.788;7.318;2022-10-22T11:30:11;9.27;;;1.13;;
43124;SDS011;49182;50.788;7.318;2022-10-22T11:32:40;5.47;;;1.08;;
43124;SDS011;49182;50.788;7.318;2022-10-22T11:35:11;4.93;;;1.17;;
43124;SDS011;49182;50.788;7.318;2022-10-22T11:37:41;3.88;;;0.70;;
43124;SDS011;49182;50.788;7.318;2022-10-22T11:40:14;2.72;;;0.90;;
43124;SDS011;49182;50.788;7.318;2022-10-22T11:42:44;4.60;;;1.27;;
43124;SDS011;49182;50.788;7.318;2022-10-22T11:45:28;6.50;;;0.90;;
43124;SDS011;49182;50.788;7.318;2022-10-22T11:47:57;5.22;;;1.00;;
43124;SDS011;49182;50.788;7.318;2022-10-22T11:50:43;6.10;;;0.90;;
43124;SDS011;49182;50.788;7.318;2022-10-22T11:55:45;4.13;;;1.10;;
43124;SDS011;49182;50.788;7.318;2022-10-22T12:03:48;4.15;;;1.10;;
43124;SDS011;49182;50.788;7.318;2022-10-22T12:06:20;5.28;;;1.17;;
43124;SDS011;49182;50.788;7.318;2022-10-22T12:08:54;3.95;;;1.00;;
43124;SDS011;49182;50.788;7.318;2022-10-22T12:11:26;8.65;;;1.10;;
43124;SDS011;49182;50.788;7.318;2022-10-22T12:14:01;5.18;;;1.15;;
43124;SDS011;49182;50.788;7.318;2022-10-22T12:16:39;2.83;;;1.00;;
43124;SDS011;49182;50.788;7.318;2022-10-22T12:19:28;6.05;;;1.20;;
43124;SDS011;49182;50.788;7.318;2022-10-22T12:21:58;2.95;;;1.00;;
43124;SDS011;49182;50.788;7.318;2022-10-22T12:24:29;7.03;;;1.05;;
43124;SDS011;49182;50.788;7.318;2022-10-22T12:27:00;6.38;;;1.30;;
43124;SDS011;49182;50.788;7.318;2022-10-22T12:29:29;3.75;;;1.20;;
43124;SDS011;49182;50.788;7.318;2022-10-22T12:32:01;5.68;;;1.13;;
43124;SDS011;49182;50.788;7.318;2022-10-22T12:34:28;9.23;;;1.13;;
43124;SDS011;49182;50.788;7.318;2022-10-22T12:36:55;10.10;;;1.13;;
43124;SDS011;49182;50.788;7.318;2022-10-22T12:39:24;7.85;;;1.13;;
43124;SDS011;49182;50.788;7.318;2022-10-22T12:41:52;7.60;;;1.60;;
43124;SDS011;49182;50.788;7.318;2022-10-22T12:44:21;5.68;;;1.27;;
43124;SDS011;49182;50.788;7.318;2022-10-22T12:46:48;6.75;;;1.92;;
43124;SDS011;49182;50.788;7.318;2022-10-22T12:49:22;4.05;;;1.20;;
43124;SDS011;49182;50.788;7.318;2022-10-22T12:51:53;3.80;;;1.25;;
43124;SDS011;49182;50.788;7.318;2022-10-22T12:54:23;4.43;;;1.35;;
43124;SDS011;49182;50.788;7.318;2022-10-22T12:56:52;7.63;;;1.38;;
43124;SDS011;49182;50.788;7.318;2022-10-22T12:59:23;4.50;;;1.38;;
43124;SDS011;49182;50.788;7.318;2022-10-22T13:04:29;5.18;;;1.50;;
43124;SDS011;49182;50.788;7.318;2022-10-22T13:07:17;5.50;;;1.40;;
43124;SDS011;49182;50.788;7.318;2022-10-22T13:09:55;9.02;;;1.20;;
43124;SDS011;49182;50.788;7.318;2022-10-22T13:12:24;3.58;;;1.40;;
43124;SDS011;49182;50.788;7.318;2022-10-22T13:14:53;4.30;;;1.00;;
43124;SDS011;49182;50.788;7.318;2022-10-22T13:17:35;5.97;;;1.10;;
43124;SDS011;49182;50.788;7.318;2022-10-22T13:20:10;4.43;;;0.80;;
43124;SDS011;49182;50.788;7.318;2022-10-22T13:22:51;4.63;;;1.10;;
43124;SDS011;49182;50.788;7.318;2022-10-22T13:25:20;6.30;;;1.00;;
43124;SDS011;49182;50.788;7.318;2022-10-22T13:27:49;3.95;;;1.00;;
43124;SDS011;49182;50.788;7.318;2022-10-22T13:30:21;5.18;;;1.58;;
43124;SDS011;49182;50.788;7.318;2022-10-22T13:32:50;5.13;;;1.00;;
43124;SDS011;49182;50.788;7.318;2022-10-22T13:35:19;4.15;;;1.10;;
43124;SDS011;49182;50.788;7.318;2022-10-22T13:37:49;4.60;;;1.00;;
43124;SDS011;49182;50.788;7.318;2022-10-22T13:40:15;2.92;;;0.95;;
43124;SDS011;49182;50.788;7.318;2022-10-22T13:42:42;4.22;;;1.15;;
43124;SDS011;49182;50.788;7.318;2022-10-22T13:45:10;3.53;;;1.02;;
43124;SDS011;49182;50.788;7.318;2022-10-22T13:47:41;3.65;;;0.80;;
43124;SDS011;49182;50.788;7.318;2022-10-22T13:52:40;7.88;;;1.00;;
43124;SDS011;49182;50.788;7.318;2022-10-22T13:55:13;3.13;;;1.10;;
43124;SDS011;49182;50.788;7.318;2022-10-22T13:57:41;5.43;;;0.95;;
43124;SDS011;49182;50.788;7.318;2022-10-22T14:00:10;7.80;;;1.23;;
43124;SDS011;49182;50.788;7.318;2022-10-22T14:02:41;5.03;;;0.90;;
43124;SDS011;49182;50.788;7.318;2022-10-22T14:05:09;6.20;;;1.10;;
43124;SDS011;49182;50.788;7.318;2022-10-22T14:07:36;4.95;;;1.20;;
43124;SDS011;49182;50.788;7.318;2022-10-22T14:10:05;4.93;;;0.93;;
43124;SDS011;49182;50.788;7.318;2022-10-22T14:12:39;5.82;;;0.88;;
43124;SDS011;49182;50.788;7.318;2022-10-22T14:15:06;3.88;;;0.80;;
43124;SDS011;49182;50.788;7.318;2022-10-22T14:17:33;6.93;;;1.00;;
43124;SDS011;49182;50.788;7.318;2022-10-22T14:20:02;10.10;;;1.45;;
43124;SDS011;49182;50.788;7.318;2022-10-22T14:22:28;3.30;;;0.90;;
43124;SDS011;49182;50.788;7.318;2022-10-22T14:24:55;5.30;;;0.85;;
43124;SDS011;49182;50.788;7.318;2022-10-22T14:27:22;4.35;;;0.70;;
43124;SDS011;49182;50.788;7.318;2022-10-22T14:29:49;3.60;;;0.63;;
43124;SDS011;49182;50.788;7.318;2022-10-22T14:32:16;3.58;;;0.93;;
43124;SDS011;49182;50.788;7.318;2022-10-22T14:34:44;2.65;;;0.65;;
43124;SDS011;49182;50.788;7.318;2022-10-22T14:37:13;6.55;;;1.65;;
43124;SDS011;49182;50.788;7.318;2022-10-22T14:42:09;4.72;;;0.75;;
43124;SDS011;49182;50.788;7.318;2022-10-22T14:44:36;5.55;;;0.90;;
43124;SDS011;49182;50.788;7.318;2022-10-22T14:47:03;2.85;;;0.73;;
43124;SDS011;49182;50.788;7.318;2022-10-22T14:49:29;4.45;;;0.93;;
43124;SDS011;49182;50.788;7.318;2022-10-22T14:51:56;6.43;;;0.80;;
43124;SDS011;49182;50.788;7.318;2022-10-22T14:54:24;11.13;;;0.98;;
43124;SDS011;49182;50.788;7.318;2022-10-22T14:56:51;3.90;;;0.63;;
43124;SDS011;49182;50.788;7.318;2022-10-22T14:59:17;11.13;;;0.90;;
43124;SDS011;49182;50.788;7.318;2022-10-22T15:01:44;4.85;;;1.13;;
43124;SDS011;49182;50.788;7.318;2022-10-22T15:04:10;8.00;;;1.05;;
43124;SDS011;49182;50.788;7.318;2022-10-22T15:06:37;7.03;;;1.02;;
43124;SDS011;49182;50.788;7.318;2022-10-22T15:09:04;10.60;;;0.90;;
43124;SDS011;49182;50.788;7.318;2022-10-22T15:11:31;8.55;;;0.98;;
43124;SDS011;49182;50.788;7.318;2022-10-22T15:13:58;9.93;;;1.10;;
43124;SDS011;49182;50.788;7.318;2022-10-22T15:16:25;15.85;;;1.00;;
43124;SDS011;49182;50.788;7.318;2022-10-22T15:18:51;14.88;;;0.90;;
43124;SDS011;49182;50.788;7.318;2022-10-22T15:21:18;15.02;;;1.58;;
43124;SDS011;49182;50.788;7.318;2022-10-22T15:23:46;34.83;;;1.77;;
43124;SDS011;49182;50.788;7.318;2022-10-22T15:26:13;22.20;;;1.73;;
43124;SDS011;49182;50.788;7.318;2022-10-22T15:28:41;17.63;;;1.38;;
43124;SDS011;49182;50.788;7.318;2022-10-22T15:31:09;6.45;;;0.75;;
43124;SDS011;49182;50.788;7.318;2022-10-22T15:33:39;13.13;;;0.98;;